< < Back
Terminal Aerodrome Forecast


Current Version              Previous Versions:   1  2  3  4  5  6  7  8  9  

Terminal Aerodrome Forecast

382
FTUS44 KMRX 302325
TAFTYS
TAF
KTYS 302325Z 3100/3124 27010KT P6SM SKC
     FM310300 00000KT P6SM SCT250
     FM311300 22008KT P6SM FEW120
     FM312000 24012G20KT P6SM SCT060 BKN200=



Latest METAR

834
SAUS80 KWBC 310300 RRB
MTRTYS
METAR KTYS 310253Z 26004KT 10SM CLR 12/M03 A3011 RMK AO2 SLP194
T01221028 50018


USA.gov is the U.S. government's official web portal to all federal, state and local government web resources and services.